Ontario International Airport (ONT/KONT)



Flight Aircraft Arriving
CPX2187
KPHL - Philadelphia International Airport
United StatesPennsylvania Philadelphia, Pennsylvania
CPX7343
KABE - Lehigh Valley International Airport
United StatesPennsylvania Allentown, Pennsylvania
CPX7348
KILN - Wilmington Air Park
United StatesOhio Wilmington, Ohio
Flight Aircraft Departing
CPX2186
KPHL - Philadelphia International Airport
United StatesPennsylvania Philadelphia, Pennsylvania
CPX7341
KABE - Lehigh Valley International Airport
United StatesPennsylvania Allentown, Pennsylvania
CPX7437
KBDL - Bradley International Airport
United StatesConnecticut Windsor Locks, Connecticut
CPX7446
KBWI - Baltimore/Washington International Airport
United StatesMaryland Baltimore, Maryland


Airport Information
Location: Ontario, California
Coordinates: 34.056 / -117.601
Field Elevation: 943ft
Longest Runway: 12,235ft
ILS Approaches: YES
Landing Fees: $1,743 per flight
Jet A Price: $0.42/lbs
Charts:

Current Weather
METAR: KONT 190053Z 26011KT 10SM CLR 27/11 A2996 RMK AO2 SLP131 T02720106
TAF: KONT 182336Z 1900/2006 26011KT P6SM SKC FM190400 VRB04KT P6SM SKC FM192100 26011KT P6SM SKC FM200400 VRB04KT P6SM SKC

Recent Arrivals
Date Flight Type Depart
Recent Departures
Date Flight Type Arrive